createdAt,value
2022-09-17T00:01:39.538Z,11.69
2022-09-17T00:04:07.661Z,11.70
2022-09-17T00:06:37.450Z,11.64
2022-09-17T00:09:06.591Z,11.59
2022-09-17T00:11:37.826Z,11.53
2022-09-17T00:14:10.198Z,11.48
2022-09-17T00:16:40.514Z,11.46
2022-09-17T00:19:14.438Z,11.42
2022-09-17T00:21:43.197Z,11.41
2022-09-17T00:24:14.202Z,11.40
2022-09-17T00:26:42.869Z,11.45
2022-09-17T00:29:13.310Z,11.46
2022-09-17T00:31:41.791Z,11.50
2022-09-17T00:34:10.269Z,11.55
2022-09-17T00:36:40.488Z,11.61
2022-09-17T00:39:12.440Z,11.67
2022-09-17T00:41:40.793Z,11.76
2022-09-17T00:44:53.240Z,11.88
2022-09-17T00:47:31.094Z,12.01
2022-09-17T00:50:04.368Z,12.08
2022-09-17T00:52:37.318Z,12.10
2022-09-17T00:55:14.041Z,12.11
2022-09-17T00:57:43.328Z,12.12
2022-09-17T01:00:15.006Z,12.14
2022-09-17T01:02:45.018Z,12.12
2022-09-17T01:05:14.543Z,12.15
2022-09-17T01:08:03.432Z,12.12
2022-09-17T01:10:49.103Z,12.12
2022-09-17T01:13:28.374Z,12.18
2022-09-17T01:16:08.828Z,12.21
2022-09-17T01:18:54.183Z,12.15
2022-09-17T01:21:50.048Z,12.08
2022-09-17T01:24:48.357Z,12.01
2022-09-17T01:28:18.270Z,11.96
2022-09-17T01:31:19.696Z,11.93
2022-09-17T01:34:03.452Z,11.94
2022-09-17T01:36:54.639Z,11.91
2022-09-17T01:39:34.527Z,11.83
2022-09-17T01:42:15.324Z,11.77
2022-09-17T01:44:53.260Z,11.71
2022-09-17T01:47:27.397Z,11.64
2022-09-17T01:50:01.630Z,11.56
2022-09-17T01:52:33.038Z,11.51
2022-09-17T01:55:07.315Z,11.45
2022-09-17T01:57:41.903Z,11.43
2022-09-17T02:00:13.749Z,11.46
2022-09-17T02:02:47.698Z,11.48
2022-09-17T02:05:20.524Z,11.55
2022-09-17T02:07:55.041Z,11.65
2022-09-17T02:10:27.473Z,11.69
2022-09-17T02:13:02.041Z,11.67
2022-09-17T02:15:37.713Z,11.67
2022-09-17T02:18:15.041Z,11.71
2022-09-17T02:20:48.644Z,11.77
2022-09-17T02:23:22.603Z,11.75
2022-09-17T02:26:00.746Z,11.66
2022-09-17T02:28:42.471Z,11.53
2022-09-17T02:31:11.857Z,11.43
2022-09-17T02:33:43.667Z,11.35
2022-09-17T02:36:11.763Z,11.27
2022-09-17T02:38:43.132Z,11.19
2022-09-17T02:41:17.877Z,11.11
2022-09-17T02:44:01.127Z,11.06
2022-09-17T02:46:46.738Z,11.00
2022-09-17T02:49:36.921Z,11.07
2022-09-17T02:52:15.792Z,11.14
2022-09-17T02:54:54.319Z,11.14
2022-09-17T02:57:31.132Z,11.07
2022-09-17T03:00:07.479Z,10.99
2022-09-17T03:02:41.380Z,10.90
2022-09-17T03:05:12.258Z,10.81
2022-09-17T03:07:40.440Z,10.75
2022-09-17T03:10:10.145Z,10.70
2022-09-17T03:12:38.550Z,10.70
2022-09-17T03:15:08.062Z,10.77
2022-09-17T03:17:36.562Z,10.85
2022-09-17T03:20:06.211Z,10.82
2022-09-17T03:22:35.725Z,10.71
2022-09-17T03:25:03.911Z,10.60
2022-09-17T03:27:32.005Z,10.54
2022-09-17T03:30:00.244Z,10.51
2022-09-17T03:32:28.297Z,10.50
2022-09-17T03:34:56.564Z,10.47
2022-09-17T03:37:24.652Z,10.47
2022-09-17T03:39:54.127Z,10.46
2022-09-17T03:42:22.185Z,10.44
2022-09-17T03:44:50.686Z,10.44
2022-09-17T03:47:18.821Z,10.42
2022-09-17T03:49:46.902Z,10.43
2022-09-17T03:52:15.181Z,10.41
2022-09-17T03:54:43.362Z,10.41
2022-09-17T03:57:12.869Z,10.39
2022-09-17T03:59:40.914Z,10.37
2022-09-17T04:02:09.059Z,10.40
2022-09-17T04:04:37.782Z,10.50
2022-09-17T04:07:06.182Z,10.60
2022-09-17T04:09:35.363Z,10.55
2022-09-17T04:12:04.233Z,10.43
2022-09-17T04:14:33.650Z,10.32
2022-09-17T04:17:01.724Z,10.22
2022-09-17T04:19:29.832Z,10.15
2022-09-17T04:21:57.962Z,10.06
2022-09-17T04:24:26.062Z,10.00
2022-09-17T04:26:54.115Z,9.93
2022-09-17T04:29:22.230Z,9.89
2022-09-17T04:31:51.652Z,9.84
2022-09-17T04:34:19.827Z,9.77
2022-09-17T04:36:47.827Z,9.73
2022-09-17T04:39:17.285Z,9.70
2022-09-17T04:41:45.790Z,9.72
2022-09-17T04:44:13.928Z,9.79
2022-09-17T04:46:42.018Z,9.88
2022-09-17T04:49:12.471Z,9.97
2022-09-17T04:51:40.515Z,10.03
2022-09-17T04:54:08.962Z,10.02
2022-09-17T04:56:36.981Z,10.01
2022-09-17T04:59:05.193Z,10.03
2022-09-17T05:01:33.262Z,10.07
2022-09-17T05:04:07.838Z,10.14
2022-09-17T05:06:37.978Z,10.13
2022-09-17T05:09:06.037Z,10.09
2022-09-17T05:11:34.068Z,10.04
2022-09-17T05:14:02.288Z,10.01
2022-09-17T05:16:30.659Z,9.97
2022-09-17T05:18:58.899Z,9.91
2022-09-17T05:21:27.151Z,9.84
2022-09-17T05:23:56.879Z,9.85
2022-09-17T05:26:25.409Z,9.82
2022-09-17T05:28:53.693Z,9.80
2022-09-17T05:31:21.792Z,9.79
2022-09-17T05:33:49.973Z,9.78
2022-09-17T05:36:18.153Z,9.77
2022-09-17T05:38:46.284Z,9.77
2022-09-17T05:41:15.863Z,9.75
2022-09-17T05:43:44.786Z,9.72
2022-09-17T05:46:12.918Z,9.77
2022-09-17T05:48:40.999Z,9.81
2022-09-17T05:51:09.100Z,9.90
2022-09-17T05:53:37.854Z,10.07
2022-09-17T05:56:06.546Z,10.22
2022-09-17T05:58:35.958Z,10.35
2022-09-17T06:01:04.349Z,10.45
2022-09-17T06:03:32.447Z,10.48
2022-09-17T06:06:01.686Z,10.52
2022-09-17T06:08:30.639Z,10.60
2022-09-17T06:11:02.261Z,10.74
2022-09-17T06:13:30.899Z,10.88
2022-09-17T06:16:00.751Z,11.03
2022-09-17T06:18:29.533Z,11.21
2022-09-17T06:20:59.530Z,11.41
2022-09-17T06:23:29.156Z,11.67
2022-09-17T06:25:59.825Z,11.94
2022-09-17T06:28:29.021Z,12.08
2022-09-17T06:31:03.454Z,12.05
2022-09-17T06:33:32.910Z,11.77
2022-09-17T06:36:03.390Z,11.48
2022-09-17T06:38:34.465Z,11.26
2022-09-17T06:41:03.007Z,11.13
2022-09-17T06:43:31.642Z,11.04
2022-09-17T06:46:03.573Z,11.01
2022-09-17T06:48:35.296Z,11.02
2022-09-17T06:51:05.987Z,11.11
2022-09-17T06:53:34.513Z,11.27
2022-09-17T06:56:06.484Z,11.38
2022-09-17T06:58:37.044Z,11.36
2022-09-17T07:01:07.034Z,11.30
2022-09-17T07:03:37.347Z,11.24
2022-09-17T07:06:06.313Z,11.31
2022-09-17T07:08:35.424Z,11.33
2022-09-17T07:11:03.635Z,11.25
2022-09-17T07:13:31.733Z,11.22
2022-09-17T07:16:01.474Z,11.22
2022-09-17T07:18:31.189Z,11.20
2022-09-17T07:21:01.247Z,11.20
2022-09-17T07:23:31.225Z,11.25
2022-09-17T07:26:03.169Z,11.44
2022-09-17T07:28:31.384Z,11.73
2022-09-17T07:30:59.567Z,12.02
2022-09-17T07:33:30.015Z,12.21
2022-09-17T07:36:00.056Z,12.23
2022-09-17T07:38:29.643Z,12.10
2022-09-17T07:41:00.074Z,11.91
2022-09-17T07:43:29.707Z,11.78
2022-09-17T07:46:00.822Z,11.71
2022-09-17T07:48:31.287Z,11.63
2022-09-17T07:50:59.891Z,11.64
2022-09-17T07:53:28.539Z,11.74
2022-09-17T07:55:58.639Z,11.84
2022-09-17T07:58:31.755Z,11.97
2022-09-17T08:01:03.343Z,12.10
2022-09-17T08:03:33.396Z,12.30
2022-09-17T08:06:06.007Z,12.64
2022-09-17T08:08:35.864Z,12.89
2022-09-17T08:11:04.437Z,12.86
2022-09-17T08:13:32.775Z,12.70
2022-09-17T08:16:02.939Z,12.59
2022-09-17T08:18:32.994Z,12.39
2022-09-17T08:21:03.186Z,12.22
2022-09-17T08:23:33.219Z,12.10
2022-09-17T08:26:02.590Z,12.09
2022-09-17T08:28:32.641Z,12.25
2022-09-17T08:31:03.389Z,12.56
2022-09-17T08:33:34.694Z,12.86
2022-09-17T08:36:03.637Z,13.02
2022-09-17T08:38:37.927Z,13.22
2022-09-17T08:41:25.607Z,13.52
2022-09-17T08:44:07.408Z,13.72
2022-09-17T08:46:48.188Z,13.68
2022-09-17T08:49:31.445Z,13.60
2022-09-17T08:53:02.695Z,13.70
2022-09-17T08:55:41.379Z,13.86
2022-09-17T08:58:39.526Z,14.02
2022-09-17T09:01:25.579Z,14.31
2022-09-17T09:04:18.461Z,14.69
2022-09-17T09:06:52.858Z,15.07
2022-09-17T09:09:26.638Z,15.39
2022-09-17T09:12:10.512Z,15.08
2022-09-17T09:14:50.015Z,14.38
2022-09-17T09:17:22.668Z,13.89
2022-09-17T09:19:52.985Z,13.51
2022-09-17T09:22:41.759Z,13.20
2022-09-17T09:25:23.266Z,12.91
2022-09-17T09:28:19.292Z,12.69
2022-09-17T09:31:10.514Z,12.60
2022-09-17T09:33:47.583Z,12.73
2022-09-17T09:36:21.689Z,12.94
2022-09-17T09:38:57.644Z,13.12
2022-09-17T09:41:33.304Z,13.17
2022-09-17T09:44:05.718Z,13.29
2022-09-17T09:47:05.121Z,13.56
2022-09-17T09:49:58.507Z,13.74
2022-09-17T09:52:45.124Z,13.63
2022-09-17T09:55:41.081Z,13.63
2022-09-17T09:58:21.129Z,13.60
2022-09-17T10:00:49.550Z,13.58
2022-09-17T10:03:22.583Z,13.49
2022-09-17T10:05:59.453Z,13.31
2022-09-17T10:08:29.444Z,12.99
2022-09-17T10:11:02.598Z,12.72
2022-09-17T10:13:35.562Z,12.66
2022-09-17T10:16:20.315Z,12.90
2022-09-17T10:18:49.945Z,13.26
2022-09-17T10:21:23.554Z,13.42
2022-09-17T10:23:52.299Z,13.38
2022-09-17T10:26:28.697Z,13.46
2022-09-17T10:28:58.526Z,13.46
2022-09-17T10:31:26.805Z,13.63
2022-09-17T10:34:00.423Z,13.90
2022-09-17T10:36:43.469Z,14.16
2022-09-17T10:39:38.635Z,14.63
2022-09-17T10:42:16.271Z,15.08
2022-09-17T10:44:54.640Z,15.47
2022-09-17T10:47:28.970Z,15.72
2022-09-17T10:50:01.442Z,15.90
2022-09-17T10:52:34.293Z,16.00
2022-09-17T10:55:24.326Z,16.00
2022-09-17T10:58:25.599Z,15.96
2022-09-17T11:01:09.762Z,16.13
2022-09-17T11:04:23.474Z,16.42
2022-09-17T11:07:23.470Z,16.75
2022-09-17T11:10:00.686Z,16.87
2022-09-17T11:13:03.942Z,17.08
2022-09-17T11:15:52.840Z,17.13
2022-09-17T11:18:37.501Z,16.87
2022-09-17T11:21:37.732Z,16.58
2022-09-17T11:25:10.028Z,16.42
2022-09-17T11:28:07.658Z,16.44
2022-09-17T11:30:50.737Z,16.64
2022-09-17T11:33:47.454Z,16.79
2022-09-17T11:36:22.242Z,16.94
2022-09-17T11:38:52.493Z,17.06
2022-09-17T11:41:24.653Z,17.34
2022-09-17T11:44:05.434Z,17.71
2022-09-17T11:46:41.585Z,18.05
2022-09-17T11:49:19.547Z,18.33
2022-09-17T11:51:52.567Z,18.35
2022-09-17T11:54:27.286Z,18.16
2022-09-17T11:57:04.415Z,17.90
2022-09-17T11:59:39.800Z,17.25
2022-09-17T12:02:22.708Z,16.63
2022-09-17T12:05:01.661Z,16.74
2022-09-17T12:07:42.409Z,17.31
2022-09-17T12:10:31.097Z,17.97
2022-09-17T12:13:08.638Z,18.65
2022-09-17T12:15:42.084Z,18.73
2022-09-17T12:18:32.237Z,18.42
2022-09-17T12:21:05.688Z,17.98
2022-09-17T12:23:43.738Z,17.68
2022-09-17T12:26:29.281Z,18.11
2022-09-17T12:29:07.001Z,18.81
2022-09-17T12:31:46.462Z,19.54
2022-09-17T12:34:37.483Z,18.24
2022-09-17T12:37:12.598Z,16.98
2022-09-17T12:40:20.449Z,17.05
2022-09-17T12:43:18.623Z,17.04
2022-09-17T12:46:29.974Z,16.25
2022-09-17T12:49:31.251Z,16.60
2022-09-17T12:52:02.570Z,17.61
2022-09-17T12:54:58.434Z,18.29
2022-09-17T12:57:39.677Z,18.46
2022-09-17T13:00:13.237Z,19.00
2022-09-17T13:02:47.464Z,18.89
2022-09-17T13:05:46.400Z,19.35
2022-09-17T13:08:53.487Z,19.59
2022-09-17T13:12:18.095Z,18.03
2022-09-17T13:15:25.117Z,16.76
2022-09-17T13:18:13.335Z,16.27
2022-09-17T13:21:02.961Z,16.27
2022-09-17T13:23:36.526Z,16.53
2022-09-17T13:26:06.766Z,17.35
2022-09-17T13:28:47.214Z,16.92
2022-09-17T13:31:23.127Z,15.62
2022-09-17T13:34:29.719Z,16.03
2022-09-17T13:37:00.600Z,16.56
2022-09-17T13:39:43.320Z,16.96
2022-09-17T13:42:18.421Z,17.63
2022-09-17T13:44:52.621Z,18.09
2022-09-17T13:47:28.353Z,18.53
2022-09-17T13:50:02.285Z,18.90
2022-09-17T13:52:39.540Z,19.28
2022-09-17T13:55:09.709Z,20.23
2022-09-17T13:57:51.262Z,21.14
2022-09-17T14:00:56.397Z,20.85
2022-09-17T14:03:57.062Z,19.66
2022-09-17T14:06:53.810Z,18.75
2022-09-17T14:09:51.464Z,18.20
2022-09-17T14:12:59.998Z,17.80
2022-09-17T14:16:03.246Z,18.22
2022-09-17T14:18:58.767Z,19.65
2022-09-17T14:21:32.944Z,20.41
2022-09-17T14:24:04.820Z,20.90
2022-09-17T14:27:16.081Z,21.32
2022-09-17T14:30:12.233Z,21.55
2022-09-17T14:32:46.700Z,21.49
2022-09-17T14:35:23.560Z,21.71
2022-09-17T14:37:59.458Z,20.89
2022-09-17T14:40:28.965Z,20.03
2022-09-17T14:43:00.044Z,19.38
2022-09-17T14:45:32.870Z,19.07
2022-09-17T14:48:31.494Z,18.65
2022-09-17T14:51:30.060Z,18.28
2022-09-17T14:54:26.567Z,18.47
2022-09-17T14:57:01.615Z,18.93
2022-09-17T14:59:45.018Z,19.74
2022-09-17T15:02:31.122Z,19.84
2022-09-17T15:05:00.148Z,19.43
2022-09-17T15:07:30.293Z,19.57
2022-09-17T15:10:10.186Z,20.77
2022-09-17T15:12:41.027Z,21.65
2022-09-17T15:15:20.313Z,21.93
2022-09-17T15:17:49.587Z,21.42
2022-09-17T15:20:22.317Z,19.47
2022-09-17T15:22:57.658Z,17.46
2022-09-17T15:25:30.948Z,16.34
2022-09-17T15:28:05.090Z,16.35
2022-09-17T15:30:34.596Z,16.37
2022-09-17T15:33:02.905Z,16.70
2022-09-17T15:35:33.322Z,16.04
2022-09-17T15:38:22.345Z,15.28
2022-09-17T15:40:51.821Z,14.70
2022-09-17T15:43:27.222Z,14.37
2022-09-17T15:46:00.659Z,14.15
2022-09-17T15:48:39.444Z,13.94
2022-09-17T15:51:24.263Z,13.96
2022-09-17T15:53:54.174Z,14.70
2022-09-17T15:56:25.359Z,16.14
2022-09-17T15:59:01.122Z,17.20
2022-09-17T16:01:57.031Z,17.93
2022-09-17T16:04:31.600Z,17.39
2022-09-17T16:07:28.570Z,16.58
2022-09-17T16:09:59.236Z,16.07
2022-09-17T16:12:29.809Z,15.75
2022-09-17T16:15:00.770Z,15.56
2022-09-17T16:17:43.325Z,15.45
2022-09-17T16:20:17.748Z,15.46
2022-09-17T16:22:47.869Z,16.73
2022-09-17T16:25:17.283Z,18.10
2022-09-17T16:27:51.378Z,19.14
2022-09-17T16:30:21.818Z,18.95
2022-09-17T16:32:52.063Z,18.44
2022-09-17T16:35:22.680Z,18.67
2022-09-17T16:37:51.721Z,19.09
2022-09-17T16:40:21.614Z,19.57
2022-09-17T16:42:49.887Z,19.62
2022-09-17T16:45:18.491Z,18.73
2022-09-17T16:47:46.599Z,17.79
2022-09-17T16:50:18.650Z,17.04
2022-09-17T16:52:47.609Z,16.69
2022-09-17T16:55:18.694Z,16.28
2022-09-17T16:57:47.680Z,15.85
2022-09-17T17:00:22.913Z,15.54
2022-09-17T17:02:56.993Z,15.30
2022-09-17T17:05:28.235Z,15.10
2022-09-17T17:07:56.562Z,14.93
2022-09-17T17:10:26.466Z,14.75
2022-09-17T17:12:55.590Z,14.67
2022-09-17T17:15:23.939Z,14.68
2022-09-17T17:17:52.445Z,14.62
2022-09-17T17:20:21.091Z,14.37
2022-09-17T17:22:51.719Z,14.16
2022-09-17T17:25:20.421Z,13.99
2022-09-17T17:27:48.572Z,13.86
2022-09-17T17:30:17.643Z,13.80
2022-09-17T17:32:50.511Z,13.72
2022-09-17T17:35:18.993Z,13.61
2022-09-17T17:37:48.593Z,13.52
2022-09-17T17:40:18.330Z,13.46
2022-09-17T17:42:47.517Z,13.43
2022-09-17T17:45:15.918Z,13.41
2022-09-17T17:47:43.965Z,13.37
2022-09-17T17:50:12.094Z,13.37
2022-09-17T17:52:43.360Z,13.38
2022-09-17T17:55:11.513Z,13.41
2022-09-17T17:57:41.328Z,13.34
2022-09-17T18:00:12.181Z,13.13
2022-09-17T18:02:40.652Z,12.82
2022-09-17T18:05:11.630Z,12.60
2022-09-17T18:07:39.734Z,12.45
2022-09-17T18:10:08.672Z,12.35
2022-09-17T18:12:37.054Z,12.25
2022-09-17T18:15:08.787Z,12.18
2022-09-17T18:17:36.898Z,12.10
2022-09-17T18:20:06.350Z,12.06
2022-09-17T18:22:34.413Z,12.03
2022-09-17T18:25:03.059Z,12.06
2022-09-17T18:27:31.096Z,12.02
2022-09-17T18:29:59.128Z,12.02
2022-09-17T18:32:29.006Z,12.00
2022-09-17T18:34:57.836Z,12.01
2022-09-17T18:37:25.945Z,12.03
2022-09-17T18:39:58.776Z,12.07
2022-09-17T18:42:27.119Z,12.09
2022-09-17T18:44:55.193Z,12.09
2022-09-17T18:47:23.272Z,12.05
2022-09-17T18:49:52.668Z,11.99
2022-09-17T18:52:21.737Z,11.89
2022-09-17T18:54:50.403Z,11.82
2022-09-17T18:57:18.531Z,11.76
2022-09-17T18:59:47.122Z,11.74
2022-09-17T19:02:15.332Z,11.75
2022-09-17T19:04:43.406Z,11.77
2022-09-17T19:07:12.906Z,11.73
2022-09-17T19:09:41.010Z,11.79
2022-09-17T19:12:09.461Z,11.77
2022-09-17T19:14:37.571Z,11.69
2022-09-17T19:17:05.843Z,11.63
2022-09-17T19:19:33.908Z,11.59
2022-09-17T19:22:02.012Z,11.58
2022-09-17T19:24:31.462Z,11.56
2022-09-17T19:27:01.444Z,11.55
2022-09-17T19:29:29.569Z,11.57
2022-09-17T19:31:57.605Z,11.58
2022-09-17T19:34:25.807Z,11.58
2022-09-17T19:36:53.837Z,11.55
2022-09-17T19:39:21.891Z,11.52
2022-09-17T19:41:51.325Z,11.50
2022-09-17T19:44:19.599Z,11.52
2022-09-17T19:46:49.999Z,11.57
2022-09-17T19:49:18.588Z,11.65
2022-09-17T19:51:46.702Z,11.72
2022-09-17T19:54:15.283Z,11.75
2022-09-17T19:56:43.339Z,11.72
2022-09-17T19:59:12.788Z,11.73
2022-09-17T20:01:43.102Z,11.69
2022-09-17T20:04:14.051Z,11.65
2022-09-17T20:06:42.292Z,11.63
2022-09-17T20:09:11.041Z,11.64
2022-09-17T20:11:41.312Z,11.67
2022-09-17T20:14:12.036Z,11.67
2022-09-17T20:16:41.359Z,11.66
2022-09-17T20:19:09.711Z,11.67
2022-09-17T20:21:37.902Z,11.72
2022-09-17T20:24:07.616Z,11.76
2022-09-17T20:26:36.406Z,11.80
2022-09-17T20:29:05.423Z,11.85
2022-09-17T20:31:35.037Z,11.86
2022-09-17T20:34:04.161Z,11.86
2022-09-17T20:36:36.057Z,11.86
2022-09-17T20:39:16.724Z,11.84
2022-09-17T20:41:46.250Z,11.87
2022-09-17T20:44:14.503Z,11.89
2022-09-17T20:46:44.156Z,11.92
2022-09-17T20:49:12.244Z,11.94
2022-09-17T20:51:40.434Z,11.95
2022-09-17T20:54:08.881Z,11.96
2022-09-17T20:56:37.171Z,11.95
2022-09-17T20:59:14.392Z,11.94
2022-09-17T21:01:45.773Z,11.94
2022-09-17T21:04:16.800Z,11.96
2022-09-17T21:06:45.718Z,11.98
2022-09-17T21:09:16.692Z,12.01
2022-09-17T21:11:46.654Z,12.01
2022-09-17T21:14:17.307Z,12.00
2022-09-17T21:16:49.054Z,12.01
2022-09-17T21:19:17.216Z,12.00
2022-09-17T21:21:45.490Z,11.93
2022-09-17T21:24:13.666Z,11.81
2022-09-17T21:26:41.802Z,11.70
2022-09-17T21:29:10.071Z,11.65
2022-09-17T21:31:39.683Z,11.58
2022-09-17T21:34:12.557Z,11.53
2022-09-17T21:36:44.225Z,11.44
2022-09-17T21:39:15.264Z,11.38
2022-09-17T21:41:43.908Z,11.32
2022-09-17T21:44:13.161Z,11.26
2022-09-17T21:46:42.795Z,11.21
2022-09-17T21:49:13.844Z,11.16
2022-09-17T21:51:43.900Z,11.11
2022-09-17T21:54:16.952Z,11.08
2022-09-17T21:56:46.351Z,11.06
2022-09-17T21:59:16.791Z,11.06
2022-09-17T22:01:48.060Z,11.04
2022-09-17T22:04:19.416Z,11.02
2022-09-17T22:07:12.922Z,11.02
2022-09-17T22:09:41.020Z,11.00
2022-09-17T22:12:11.215Z,10.96
2022-09-17T22:14:39.271Z,10.92
2022-09-17T22:17:07.374Z,10.88
2022-09-17T22:19:36.875Z,10.84
2022-09-17T22:22:04.962Z,10.82
2022-09-17T22:24:33.029Z,10.81
2022-09-17T22:27:01.104Z,10.79
2022-09-17T22:29:31.536Z,10.78
2022-09-17T22:31:59.689Z,10.79
2022-09-17T22:34:27.781Z,10.83
2022-09-17T22:36:57.785Z,10.91
2022-09-17T22:39:25.891Z,10.99
2022-09-17T22:41:54.676Z,11.02
2022-09-17T22:44:22.694Z,11.02
2022-09-17T22:46:52.580Z,10.97
2022-09-17T22:49:21.349Z,10.94
2022-09-17T22:51:49.572Z,11.10
2022-09-17T22:54:20.046Z,11.11
2022-09-17T22:56:49.103Z,11.14
2022-09-17T22:59:18.065Z,11.15
2022-09-17T23:01:46.471Z,11.16
2022-09-17T23:04:14.591Z,11.14
2022-09-17T23:06:43.052Z,11.08
2022-09-17T23:09:13.119Z,11.01
2022-09-17T23:11:43.201Z,10.97
2022-09-17T23:14:13.927Z,10.91
2022-09-17T23:16:44.331Z,10.85
2022-09-17T23:19:13.118Z,10.78
2022-09-17T23:21:41.924Z,10.72
2022-09-17T23:24:11.443Z,10.67
2022-09-17T23:26:39.532Z,10.63
2022-09-17T23:29:08.962Z,10.62
2022-09-17T23:31:37.097Z,10.62
2022-09-17T23:34:07.348Z,10.61
2022-09-17T23:36:38.737Z,10.59
2022-09-17T23:39:09.137Z,10.59
2022-09-17T23:41:39.926Z,10.59
2022-09-17T23:44:14.890Z,10.65
2022-09-17T23:46:44.678Z,10.71
2022-09-17T23:49:15.048Z,10.80
2022-09-17T23:51:43.140Z,10.86
2022-09-17T23:54:11.677Z,10.87
2022-09-17T23:56:39.888Z,10.83
2022-09-17T23:59:10.740Z,10.82
